Flight Track Log - Related Links

Times and Time Zones

All times are in EDT time to prevent confusion due to time zone crossing. See the DAL6201 flight status page for this flight to view local times or setup timezone preferences in your user account.

Time Position Orientation Groundspeed Altitude Reporting Facility
EDT Latitude Longitude Course Direction KTS MPH feet Rate Location/Type
Sun 08:17:23 PM 40.4883 -80.2086 94° East 159 183 1,900  Level FAA TRACON SMA TRACON (SMA)
Sun 08:17:43 PM 40.4875 -80.1908 94° East 157 181 2,600 2,100 Climbing FAA TRACON SMA TRACON (SMA)
Sun 08:18:03 PM 40.4867 -80.1669 93° East 167 192 3,300 2,100 Climbing FAA TRACON SMA TRACON (SMA)
Sun 08:18:23 PM 40.4861 -80.1447 92° East 189 217 4,000 2,100 Climbing FAA TRACON SMA TRACON (SMA)
Sun 08:18:43 PM 40.4892 -80.1197 81° East 218 251 4,700 2,400 Climbing FAA TRACON SMA TRACON (SMA)
Sun 08:19:03 PM 40.4942 -80.0881 78° East 231 266 5,600 2,250 Climbing FAA TRACON SMA TRACON (SMA)
Sun 08:19:23 PM 40.4981 -80.0603 80° East 252 290 6,200 1,950 Climbing FAA TRACON SMA TRACON (SMA)
Sun 08:19:43 PM 40.5019 -80.0311 80° East 266 306 6,900 2,550 Climbing FAA TRACON SMA TRACON (SMA)
Sun 08:20:03 PM 40.5072 -79.9925 80° East 278 320 7,900 2,850 Climbing FAA TRACON SMA TRACON (SMA)
Sun 08:20:23 PM 40.5122 -79.9661 76° East 280 322 8,800 2,850 Climbing FAA TRACON SMA TRACON (SMA)
Sun 08:20:43 PM 40.5156 -79.9303 83° East 282 325 9,800 2,200 Climbing FAA TRACON SMA TRACON (SMA)
Sun 08:21:23 PM 40.5275 -79.8594 77° East 293 337 11,000 1,672 Climbing FAA TRACON SMA TRACON (SMA)
Sun 08:21:44 PM 40.5303 -79.8197 85° East 332 382 11,500 1,650 Climbing FAA TRACON SMA TRACON (SMA)
Sun 08:22:03 PM 40.5367 -79.7719 80° East 351 404 12,100 1,538 Climbing FAA TRACON SMA TRACON (SMA)
Sun 08:22:23 PM 40.5442 -79.7375 74° East 352 405 12,500 1,171 Climbing FAA TRACON SMA TRACON (SMA)
Sun 08:22:44 PM 40.5508 -79.6961 78° East 366 421 12,900 1,650 Climbing FAA TRACON SMA TRACON (SMA)
Sun 08:23:03 PM 40.5544 -79.6392 85° East 378 435 13,600 1,538 Climbing FAA TRACON SMA TRACON (SMA)
Sun 08:23:23 PM 40.5633 -79.6008 73° East 387 445 13,900 1,350 Climbing FAA TRACON SMA TRACON (SMA)
Sun 08:23:43 PM 40.5664 -79.5522 85° East 394 453 14,500 1,950 Climbing FAA TRACON SMA TRACON (SMA)
Sun 08:24:03 PM 40.5742 -79.4967 80° East 402 463 15,200 1,756 Climbing FAA TRACON SMA TRACON (SMA)
Sun 08:24:24 PM 40.5831 -79.4564 74° East 401 461 15,700 1,800 Climbing FAA TRACON SMA TRACON (SMA)
Sun 08:24:43 PM 40.5861 -79.4069 85° East 405 466 16,400 2,308 Climbing FAA TRACON SMA TRACON (SMA)
Sun 08:25:03 PM 40.5936 -79.3508 80° East 406 467 17,200 1,950 Climbing FAA TRACON SMA TRACON (SMA)
Sun 08:25:23 PM 40.6044 -79.3097 71° East 407 468 17,700 1,050 Climbing FAA TRACON SMA TRACON (SMA)
Sun 08:25:43 PM 40.6058 -79.2606 88° East 407 468 17,900 1,463 Climbing FAA TRACON SMA TRACON (SMA)
Sun 08:26:04 PM 40.6133 -79.2044 80° East 406 467 18,700 2,100 Climbing FAA TRACON SMA TRACON (SMA)
Sun 08:26:23 PM 40.6192 -79.1594 80° East 406 467 19,300 1,692 Climbing FAA TRACON SMA TRACON (SMA)
Sun 08:26:43 PM 40.6253 -79.1139 80° East 408 470 19,800 1,350 Climbing FAA TRACON SMA TRACON (SMA)
Sun 08:27:03 PM 40.6311 -79.0681 80° East 411 473 20,200 1,391 Climbing FAA TRACON SMA TRACON (SMA)
Sun 08:27:52 PM 40.6539 -78.9547 75° East 413 475 21,400 991 Climbing Cleveland Center
Sun 08:28:52 PM 40.6722 -78.7983 81° East 413 475 22,000 750 Climbing Cleveland Center
Sun 08:29:52 PM 40.6928 -78.6417 80° East 424 488 22,900 1,600 Climbing Cleveland Center
Sun 08:30:52 PM 40.7147 -78.4683 80° East 435 501 25,200 1,469 Climbing Cleveland Center
Sun 08:33:04 PM 40.8314 -78.1492 64° Northeast 436 502 27,600 1,063 Climbing New York Center
Sun 08:34:04 PM 40.9047 -78.0089 55° Northeast 448 516 28,600 694 Climbing New York Center
Sun 08:35:05 PM 40.9297 -77.8356 79° East 448 516 29,000 198 Climbing New York Center
Sun 08:36:05 PM 40.9444 -77.6558 84° East 473 544 29,000  Level New York Center
Sun 08:37:04 PM 40.9592 -77.4731 84° East 488 562 29,000  Level New York Center
Sun 08:38:05 PM 40.9736 -77.2875 84° East 499 574 29,000 -600 Level New York Center
Sun 08:39:04 PM 40.9878 -77.1047 84° East 499 574 27,800 -1,850 Descending New York Center
Sun 08:40:05 PM 40.9994 -76.9242 85° East 494 568 25,300 -2,370 Descending New York Center
Sun 08:41:03 PM 41.0144 -76.7550 83° East 489 563 23,100 -2,067 Descending New York Center
Sun 08:42:04 PM 41.0039 -76.5892 95° East 463 533 21,200 -1,736 Descending New York Center
Sun 08:43:04 PM 40.9653 -76.4403 109° East 432 497 19,600 -1,537 Descending New York Center
Sun 08:44:05 PM 40.9325 -76.2944 107° East 425 489 18,100 -793 Descending New York Center
Sun 08:45:05 PM 40.8994 -76.1547 107° East 412 474 18,000 -655 Descending New York Center
Sun 08:46:04 PM 40.8675 -76.0286 108° East 404 465 16,800 -1,866 Descending New York Center
Sun 08:47:04 PM 40.8322 -75.8806 107° East 388 447 14,300 -1,916 Descending New York Center
Sun 08:48:03 PM 40.8022 -75.7575 108° East 368 423 13,000 -655 Descending New York Center
Sun 08:49:03 PM 40.7753 -75.6514 109° East 327 376 13,000  Level New York Center
Sun 08:50:04 PM 40.7522 -75.5567 108° East 299 344 13,000  Level New York Center
Sun 08:51:04 PM 40.7589 -75.4394 86° East 287 330 13,000  Level New York Center
Sun 08:52:04 PM 40.7539 -75.3569 95° East 287 330 13,000  Level New York Center
Sun 08:53:04 PM 40.6972 -75.2572 127° Southeast 281 323 13,000 -303 Level New York Center
Sun 08:54:03 PM 40.6656 -75.1567 113° Southeast 296 341 12,400 -1,261 Descending New York Center
Sun 08:55:03 PM 40.6083 -75.0683 130° Southeast 291 335 10,500 -1,180 Descending New York Center
Sun 08:56:05 PM 40.5633 -74.9889 127° Southeast 285 328 10,000 -246 Descending New York Center
Sun 08:57:05 PM 40.5372 -74.9028 112° Southeast 279 321 10,000  Level New York Center
Sun 08:57:53 PM 40.5167 -74.8167 107° East 285 328 10,000 -56 Level New York TRACON
Sun 08:58:53 PM 40.4833 -74.7167 114° Southeast 275 316 9,900 -476 Descending New York TRACON
Sun 08:59:59 PM 40.4500 -74.6167 114° Southeast 268 308 9,000 -450 Descending New York TRACON
Sun 09:00:53 PM 40.4333 -74.5333 105° East 275 316 9,000 -400 Level New York TRACON
Sun 09:01:59 PM 40.4667 -74.4333 66° East 273 314 8,200 -900 Descending New York TRACON
Sun 09:02:53 PM 40.4833 -74.3500 75° East 246 283 7,200 -600 Descending New York TRACON
Sun 09:03:59 PM 40.5000 -74.2667 75° East 187 215 7,000 -95 Descending New York TRACON
Sun 09:04:59 PM 40.5167 -74.2167 66° East 182 209 7,000 -500 Level New York TRACON
Sun 09:05:59 PM 40.5500 -74.1667 49° Northeast 187 215 6,000 -1,053 Descending New York TRACON
Sun 09:06:53 PM 40.5833 -74.1167 49° Northeast 185 213 5,000 -1,000 Descending New York TRACON
Sun 09:07:53 PM 40.6167 -74.0833 37° Northeast 181 208 4,100 -476 Descending New York TRACON
Sun 09:08:59 PM 40.6667 -74.0500 27° Northeast 181 208 4,000 -50 Descending New York TRACON
Sun 09:09:53 PM 40.7167 -74.0333 14° North 178 205 4,000 53 Level New York TRACON
Sun 09:10:53 PM 40.7667 -74.0167 14° North 182 209 4,100 48 Climbing New York TRACON
Sun 09:11:59 PM 40.8167 -73.9833 27° Northeast 179 206 4,100 -350 Level New York TRACON
Sun 09:12:53 PM 40.8500 -73.9500 37° Northeast 176 203 3,400 -550 Descending New York TRACON
Sun 09:13:59 PM 40.9000 -73.9167 27° Northeast 182 209 3,000 -550 Descending New York TRACON
Sun 09:14:53 PM 40.9000 -73.8667 90° East 181 208 2,300 -450 Descending New York TRACON
Sun 09:15:59 PM 40.8833 -73.8000 108° East 189 217 2,100 -381 Descending New York TRACON
Sun 09:16:59 PM 40.8500 -73.8167 201° Southwest 166 191 1,500 -632 Descending New York TRACON
Sun 09:17:53 PM 40.8167 -73.8500 217° Southwest 137 158 900 -667 Descending New York TRACON
Sun 09:19:00 PM 40.7772 -73.8726 204° Southwest  Level Estimated
Sun 09:26:00 PM 40.7772 -73.8726 204° Southwest  Level Estimated
Sun 09:27:00 PM 40.7772 -73.8726 204° Southwest  Level Estimated

Login

Don't have an account? Register now (free) for customized features, flight alerts, and more!